sensor_id;sensor_type;location;lat;lon;timestamp;temperature;humidity
6664;DHT22;58749;48.022;10.922;2022-09-02T00:01:36;14.40;99.90
6664;DHT22;58749;48.022;10.922;2022-09-02T00:04:07;14.30;99.90
6664;DHT22;58749;48.022;10.922;2022-09-02T00:06:37;14.20;99.90
6664;DHT22;58749;48.022;10.922;2022-09-02T00:09:06;14.20;99.90
6664;DHT22;58749;48.022;10.922;2022-09-02T00:11:37;14.10;99.90
6664;DHT22;58749;48.022;10.922;2022-09-02T00:14:07;14.00;99.90
6664;DHT22;58749;48.022;10.922;2022-09-02T00:16:36;14.00;99.90
6664;DHT22;58749;48.022;10.922;2022-09-02T00:19:05;13.80;99.90
6664;DHT22;58749;48.022;10.922;2022-09-02T00:21:34;13.80;99.90
6664;DHT22;58749;48.022;10.922;2022-09-02T00:24:04;13.80;99.90
6664;DHT22;58749;48.022;10.922;2022-09-02T00:26:33;13.70;99.90
6664;DHT22;58749;48.022;10.922;2022-09-02T00:29:01;13.70;99.90
6664;DHT22;58749;48.022;10.922;2022-09-02T00:31:30;13.70;99.90
6664;DHT22;58749;48.022;10.922;2022-09-02T00:33:59;13.70;99.90
6664;DHT22;58749;48.022;10.922;2022-09-02T00:36:27;13.80;99.90
6664;DHT22;58749;48.022;10.922;2022-09-02T00:38:55;13.80;99.90
6664;DHT22;58749;48.022;10.922;2022-09-02T00:41:26;13.90;99.90
6664;DHT22;58749;48.022;10.922;2022-09-02T00:43:57;14.00;99.90
6664;DHT22;58749;48.022;10.922;2022-09-02T00:46:27;14.00;99.90
6664;DHT22;58749;48.022;10.922;2022-09-02T00:48:59;14.00;99.90
6664;DHT22;58749;48.022;10.922;2022-09-02T00:51:32;14.10;99.90
6664;DHT22;58749;48.022;10.922;2022-09-02T00:54:01;14.10;99.90
6664;DHT22;58749;48.022;10.922;2022-09-02T00:56:32;14.00;99.90
6664;DHT22;58749;48.022;10.922;2022-09-02T00:59:00;14.00;99.90
6664;DHT22;58749;48.022;10.922;2022-09-02T01:01:29;13.90;99.90
6664;DHT22;58749;48.022;10.922;2022-09-02T01:03:57;13.80;99.90
6664;DHT22;58749;48.022;10.922;2022-09-02T01:06:27;13.80;99.90
6664;DHT22;58749;48.022;10.922;2022-09-02T01:09:03;13.80;99.90
6664;DHT22;58749;48.022;10.922;2022-09-02T01:11:39;13.70;99.90
6664;DHT22;58749;48.022;10.922;2022-09-02T01:14:08;13.60;99.90
6664;DHT22;58749;48.022;10.922;2022-09-02T01:16:41;13.50;99.90
6664;DHT22;58749;48.022;10.922;2022-09-02T01:19:17;13.40;99.90
6664;DHT22;58749;48.022;10.922;2022-09-02T01:21:49;13.40;99.90
6664;DHT22;58749;48.022;10.922;2022-09-02T01:24:18;13.30;99.90
6664;DHT22;58749;48.022;10.922;2022-09-02T01:26:47;13.30;99.90
6664;DHT22;58749;48.022;10.922;2022-09-02T01:29:15;13.20;99.90
6664;DHT22;58749;48.022;10.922;2022-09-02T01:31:44;13.20;99.90
6664;DHT22;58749;48.022;10.922;2022-09-02T01:34:13;13.20;99.90
6664;DHT22;58749;48.022;10.922;2022-09-02T01:36:41;13.20;99.90
6664;DHT22;58749;48.022;10.922;2022-09-02T01:39:12;13.30;99.90
6664;DHT22;58749;48.022;10.922;2022-09-02T01:41:40;13.30;99.90
6664;DHT22;58749;48.022;10.922;2022-09-02T01:44:09;13.30;99.90
6664;DHT22;58749;48.022;10.922;2022-09-02T01:46:38;13.40;99.90
6664;DHT22;58749;48.022;10.922;2022-09-02T01:49:06;13.50;99.90
6664;DHT22;58749;48.022;10.922;2022-09-02T01:51:34;13.40;99.90
6664;DHT22;58749;48.022;10.922;2022-09-02T01:54:02;13.40;99.90
6664;DHT22;58749;48.022;10.922;2022-09-02T01:56:32;13.30;99.90
6664;DHT22;58749;48.022;10.922;2022-09-02T01:59:00;13.30;99.90
6664;DHT22;58749;48.022;10.922;2022-09-02T02:01:29;13.40;99.90
6664;DHT22;58749;48.022;10.922;2022-09-02T02:03:57;13.50;99.90
6664;DHT22;58749;48.022;10.922;2022-09-02T02:06:25;13.60;99.90
6664;DHT22;58749;48.022;10.922;2022-09-02T02:08:54;13.70;99.90
6664;DHT22;58749;48.022;10.922;2022-09-02T02:11:23;13.70;99.90
6664;DHT22;58749;48.022;10.922;2022-09-02T02:13:53;13.70;99.90
6664;DHT22;58749;48.022;10.922;2022-09-02T02:16:21;13.60;99.90
6664;DHT22;58749;48.022;10.922;2022-09-02T02:18:49;13.70;99.90
6664;DHT22;58749;48.022;10.922;2022-09-02T02:21:17;13.80;99.90
6664;DHT22;58749;48.022;10.922;2022-09-02T02:23:46;13.80;99.90
6664;DHT22;58749;48.022;10.922;2022-09-02T02:26:14;13.80;99.90
6664;DHT22;58749;48.022;10.922;2022-09-02T02:28:43;13.70;99.90
6664;DHT22;58749;48.022;10.922;2022-09-02T02:31:12;13.70;99.90
6664;DHT22;58749;48.022;10.922;2022-09-02T02:33:40;13.60;99.90
6664;DHT22;58749;48.022;10.922;2022-09-02T02:36:09;13.40;99.90
6664;DHT22;58749;48.022;10.922;2022-09-02T02:38:38;13.30;99.90
6664;DHT22;58749;48.022;10.922;2022-09-02T02:41:07;13.10;99.90
6664;DHT22;58749;48.022;10.922;2022-09-02T02:43:35;13.00;99.90
6664;DHT22;58749;48.022;10.922;2022-09-02T02:46:05;12.90;99.90
6664;DHT22;58749;48.022;10.922;2022-09-02T02:48:35;12.70;99.90
6664;DHT22;58749;48.022;10.922;2022-09-02T02:51:04;12.60;99.90
6664;DHT22;58749;48.022;10.922;2022-09-02T02:53:32;12.50;99.90
6664;DHT22;58749;48.022;10.922;2022-09-02T02:56:03;12.50;99.90
6664;DHT22;58749;48.022;10.922;2022-09-02T02:58:31;12.50;99.90
6664;DHT22;58749;48.022;10.922;2022-09-02T03:01:00;12.50;99.90
6664;DHT22;58749;48.022;10.922;2022-09-02T03:03:28;12.40;99.90
6664;DHT22;58749;48.022;10.922;2022-09-02T03:05:58;12.40;99.90
6664;DHT22;58749;48.022;10.922;2022-09-02T03:08:26;12.30;99.90
6664;DHT22;58749;48.022;10.922;2022-09-02T03:10:55;12.40;99.90
6664;DHT22;58749;48.022;10.922;2022-09-02T03:13:25;12.30;99.90
6664;DHT22;58749;48.022;10.922;2022-09-02T03:15:57;12.30;99.90
6664;DHT22;58749;48.022;10.922;2022-09-02T03:18:26;12.30;99.90
6664;DHT22;58749;48.022;10.922;2022-09-02T03:20:54;12.30;99.90
6664;DHT22;58749;48.022;10.922;2022-09-02T03:23:23;12.30;99.90
6664;DHT22;58749;48.022;10.922;2022-09-02T03:25:52;12.30;99.90
6664;DHT22;58749;48.022;10.922;2022-09-02T03:28:20;12.30;99.90
6664;DHT22;58749;48.022;10.922;2022-09-02T03:30:48;12.30;99.90
6664;DHT22;58749;48.022;10.922;2022-09-02T03:33:16;12.30;99.90
6664;DHT22;58749;48.022;10.922;2022-09-02T03:35:44;12.30;99.90
6664;DHT22;58749;48.022;10.922;2022-09-02T03:38:13;12.40;99.90
6664;DHT22;58749;48.022;10.922;2022-09-02T03:40:42;12.30;99.90
6664;DHT22;58749;48.022;10.922;2022-09-02T03:43:11;12.20;99.90
6664;DHT22;58749;48.022;10.922;2022-09-02T03:45:41;12.20;99.90
6664;DHT22;58749;48.022;10.922;2022-09-02T03:48:11;12.20;99.90
6664;DHT22;58749;48.022;10.922;2022-09-02T03:50:42;12.10;99.90
6664;DHT22;58749;48.022;10.922;2022-09-02T03:53:12;12.10;99.90
6664;DHT22;58749;48.022;10.922;2022-09-02T03:55:47;12.00;99.90
6664;DHT22;58749;48.022;10.922;2022-09-02T03:58:16;11.90;99.90
6664;DHT22;58749;48.022;10.922;2022-09-02T04:00:49;11.90;99.90
6664;DHT22;58749;48.022;10.922;2022-09-02T04:03:17;11.90;99.90
6664;DHT22;58749;48.022;10.922;2022-09-02T04:05:46;11.80;99.90
6664;DHT22;58749;48.022;10.922;2022-09-02T04:08:15;11.70;99.90
6664;DHT22;58749;48.022;10.922;2022-09-02T04:10:43;11.80;99.90
6664;DHT22;58749;48.022;10.922;2022-09-02T04:13:12;11.70;99.90
6664;DHT22;58749;48.022;10.922;2022-09-02T04:15:41;11.70;99.90
6664;DHT22;58749;48.022;10.922;2022-09-02T04:18:10;11.70;99.90
6664;DHT22;58749;48.022;10.922;2022-09-02T04:20:39;11.70;99.90
6664;DHT22;58749;48.022;10.922;2022-09-02T04:23:09;11.70;99.90
6664;DHT22;58749;48.022;10.922;2022-09-02T04:25:39;11.70;99.90
6664;DHT22;58749;48.022;10.922;2022-09-02T04:28:07;11.70;99.90
6664;DHT22;58749;48.022;10.922;2022-09-02T04:30:38;11.70;99.90
6664;DHT22;58749;48.022;10.922;2022-09-02T04:33:06;11.80;99.90
6664;DHT22;58749;48.022;10.922;2022-09-02T04:35:38;11.90;99.90
6664;DHT22;58749;48.022;10.922;2022-09-02T04:38:07;11.90;99.90
6664;DHT22;58749;48.022;10.922;2022-09-02T04:40:38;11.90;99.90
6664;DHT22;58749;48.022;10.922;2022-09-02T04:43:06;12.00;99.90
6664;DHT22;58749;48.022;10.922;2022-09-02T04:45:34;12.10;99.90
6664;DHT22;58749;48.022;10.922;2022-09-02T04:48:07;12.30;99.90
6664;DHT22;58749;48.022;10.922;2022-09-02T04:50:36;12.40;99.90
6664;DHT22;58749;48.022;10.922;2022-09-02T04:53:05;12.40;99.90
6664;DHT22;58749;48.022;10.922;2022-09-02T04:55:33;12.50;99.90
6664;DHT22;58749;48.022;10.922;2022-09-02T04:58:01;12.50;99.90
6664;DHT22;58749;48.022;10.922;2022-09-02T05:00:30;12.60;99.90
6664;DHT22;58749;48.022;10.922;2022-09-02T05:02:58;12.70;99.90
6664;DHT22;58749;48.022;10.922;2022-09-02T05:05:28;12.70;99.90
6664;DHT22;58749;48.022;10.922;2022-09-02T05:07:56;12.70;99.90
6664;DHT22;58749;48.022;10.922;2022-09-02T05:10:24;12.70;99.90
6664;DHT22;58749;48.022;10.922;2022-09-02T05:12:52;12.70;99.90
6664;DHT22;58749;48.022;10.922;2022-09-02T05:15:20;12.80;99.90
6664;DHT22;58749;48.022;10.922;2022-09-02T05:17:48;12.90;99.90
6664;DHT22;58749;48.022;10.922;2022-09-02T05:20:17;12.90;99.90
6664;DHT22;58749;48.022;10.922;2022-09-02T05:22:46;12.90;99.90
6664;DHT22;58749;48.022;10.922;2022-09-02T05:25:15;12.90;99.90
6664;DHT22;58749;48.022;10.922;2022-09-02T05:27:44;12.80;99.90
6664;DHT22;58749;48.022;10.922;2022-09-02T05:30:12;12.80;99.90
6664;DHT22;58749;48.022;10.922;2022-09-02T05:32:43;12.80;99.90
6664;DHT22;58749;48.022;10.922;2022-09-02T05:35:12;12.90;99.90
6664;DHT22;58749;48.022;10.922;2022-09-02T05:37:40;12.90;99.90
6664;DHT22;58749;48.022;10.922;2022-09-02T05:40:10;12.90;99.90
6664;DHT22;58749;48.022;10.922;2022-09-02T05:42:40;12.80;99.90
6664;DHT22;58749;48.022;10.922;2022-09-02T05:45:10;12.90;99.90
6664;DHT22;58749;48.022;10.922;2022-09-02T05:47:42;12.90;99.90
6664;DHT22;58749;48.022;10.922;2022-09-02T05:50:10;13.00;99.90
6664;DHT22;58749;48.022;10.922;2022-09-02T05:52:40;13.10;99.90
6664;DHT22;58749;48.022;10.922;2022-09-02T05:55:10;13.20;99.90
6664;DHT22;58749;48.022;10.922;2022-09-02T05:57:38;13.10;99.90
6664;DHT22;58749;48.022;10.922;2022-09-02T06:00:07;13.00;99.90
6664;DHT22;58749;48.022;10.922;2022-09-02T06:02:35;13.20;99.90
6664;DHT22;58749;48.022;10.922;2022-09-02T06:05:04;13.30;99.90
6664;DHT22;58749;48.022;10.922;2022-09-02T06:07:36;13.40;99.90
6664;DHT22;58749;48.022;10.922;2022-09-02T06:10:05;13.50;99.90
6664;DHT22;58749;48.022;10.922;2022-09-02T06:12:35;13.70;99.90
6664;DHT22;58749;48.022;10.922;2022-09-02T06:15:09;13.70;99.90
6664;DHT22;58749;48.022;10.922;2022-09-02T06:17:38;13.90;99.90
6664;DHT22;58749;48.022;10.922;2022-09-02T06:20:06;14.10;99.90
6664;DHT22;58749;48.022;10.922;2022-09-02T06:22:36;14.00;99.90
6664;DHT22;58749;48.022;10.922;2022-09-02T06:25:05;14.00;99.90
6664;DHT22;58749;48.022;10.922;2022-09-02T06:27:36;14.00;99.90
6664;DHT22;58749;48.022;10.922;2022-09-02T06:30:06;13.90;99.90
6664;DHT22;58749;48.022;10.922;2022-09-02T06:32:34;13.80;99.90
6664;DHT22;58749;48.022;10.922;2022-09-02T06:35:02;13.70;99.90
6664;DHT22;58749;48.022;10.922;2022-09-02T06:37:30;13.80;99.90
6664;DHT22;58749;48.022;10.922;2022-09-02T06:39:59;14.00;99.90
6664;DHT22;58749;48.022;10.922;2022-09-02T06:42:27;14.10;99.90
6664;DHT22;58749;48.022;10.922;2022-09-02T06:44:56;14.20;99.90
6664;DHT22;58749;48.022;10.922;2022-09-02T06:47:24;14.20;99.90
6664;DHT22;58749;48.022;10.922;2022-09-02T06:49:52;14.10;99.90
6664;DHT22;58749;48.022;10.922;2022-09-02T06:52:20;14.00;99.90
6664;DHT22;58749;48.022;10.922;2022-09-02T06:54:48;14.20;99.90
6664;DHT22;58749;48.022;10.922;2022-09-02T06:57:17;14.40;99.90
6664;DHT22;58749;48.022;10.922;2022-09-02T06:59:45;14.50;99.90
6664;DHT22;58749;48.022;10.922;2022-09-02T07:02:14;14.50;99.90
6664;DHT22;58749;48.022;10.922;2022-09-02T07:04:42;14.50;99.90
6664;DHT22;58749;48.022;10.922;2022-09-02T07:07:28;14.60;99.90
6664;DHT22;58749;48.022;10.922;2022-09-02T07:09:56;14.60;99.90
6664;DHT22;58749;48.022;10.922;2022-09-02T07:12:24;14.70;99.90
6664;DHT22;58749;48.022;10.922;2022-09-02T07:14:53;14.80;99.90
6664;DHT22;58749;48.022;10.922;2022-09-02T07:17:23;15.10;99.90
6664;DHT22;58749;48.022;10.922;2022-09-02T07:19:51;14.90;99.90
6664;DHT22;58749;48.022;10.922;2022-09-02T07:22:21;15.00;99.90
6664;DHT22;58749;48.022;10.922;2022-09-02T07:24:50;15.00;99.90
6664;DHT22;58749;48.022;10.922;2022-09-02T07:27:18;15.10;99.90
6664;DHT22;58749;48.022;10.922;2022-09-02T07:29:47;15.10;99.90
6664;DHT22;58749;48.022;10.922;2022-09-02T07:32:16;15.20;99.90
6664;DHT22;58749;48.022;10.922;2022-09-02T07:34:45;15.20;99.90
6664;DHT22;58749;48.022;10.922;2022-09-02T07:37:13;15.10;99.90
6664;DHT22;58749;48.022;10.922;2022-09-02T07:39:41;15.10;99.90
6664;DHT22;58749;48.022;10.922;2022-09-02T07:42:11;15.40;99.90
6664;DHT22;58749;48.022;10.922;2022-09-02T07:44:39;15.40;99.90
6664;DHT22;58749;48.022;10.922;2022-09-02T07:47:07;15.30;99.90
6664;DHT22;58749;48.022;10.922;2022-09-02T07:49:35;15.20;99.90
6664;DHT22;58749;48.022;10.922;2022-09-02T07:52:24;15.10;99.90
6664;DHT22;58749;48.022;10.922;2022-09-02T07:54:52;15.30;99.90
6664;DHT22;58749;48.022;10.922;2022-09-02T07:57:21;15.50;99.90
6664;DHT22;58749;48.022;10.922;2022-09-02T07:59:50;15.50;99.90
6664;DHT22;58749;48.022;10.922;2022-09-02T08:02:18;15.60;99.90
6664;DHT22;58749;48.022;10.922;2022-09-02T08:04:46;15.70;99.90
6664;DHT22;58749;48.022;10.922;2022-09-02T08:07:15;15.70;99.90
6664;DHT22;58749;48.022;10.922;2022-09-02T08:09:51;15.80;99.90
6664;DHT22;58749;48.022;10.922;2022-09-02T08:12:19;15.90;99.90
6664;DHT22;58749;48.022;10.922;2022-09-02T08:14:48;15.80;99.90
6664;DHT22;58749;48.022;10.922;2022-09-02T08:17:16;15.80;99.90
6664;DHT22;58749;48.022;10.922;2022-09-02T08:19:44;15.80;99.90
6664;DHT22;58749;48.022;10.922;2022-09-02T08:22:13;15.80;99.90
6664;DHT22;58749;48.022;10.922;2022-09-02T08:24:41;15.80;99.90
6664;DHT22;58749;48.022;10.922;2022-09-02T08:27:11;15.80;99.90
6664;DHT22;58749;48.022;10.922;2022-09-02T08:29:39;15.90;99.90
6664;DHT22;58749;48.022;10.922;2022-09-02T08:32:07;16.10;99.90
6664;DHT22;58749;48.022;10.922;2022-09-02T08:34:35;16.20;99.90
6664;DHT22;58749;48.022;10.922;2022-09-02T08:37:03;16.30;99.90
6664;DHT22;58749;48.022;10.922;2022-09-02T08:39:32;16.40;99.90
6664;DHT22;58749;48.022;10.922;2022-09-02T08:42:06;16.40;99.90
6664;DHT22;58749;48.022;10.922;2022-09-02T08:44:37;16.50;99.90
6664;DHT22;58749;48.022;10.922;2022-09-02T08:47:10;16.60;99.90
6664;DHT22;58749;48.022;10.922;2022-09-02T08:49:41;16.70;99.90
6664;DHT22;58749;48.022;10.922;2022-09-02T08:52:15;16.80;99.90
6664;DHT22;58749;48.022;10.922;2022-09-02T08:54:50;16.90;99.90
6664;DHT22;58749;48.022;10.922;2022-09-02T08:57:21;16.90;99.90
6664;DHT22;58749;48.022;10.922;2022-09-02T08:59:56;17.00;99.90
6664;DHT22;58749;48.022;10.922;2022-09-02T09:02:31;16.90;99.90
6664;DHT22;58749;48.022;10.922;2022-09-02T09:05:18;17.00;99.90
6664;DHT22;58749;48.022;10.922;2022-09-02T09:08:08;17.00;99.90
6664;DHT22;58749;48.022;10.922;2022-09-02T09:10:46;17.10;99.90
6664;DHT22;58749;48.022;10.922;2022-09-02T09:13:51;17.10;99.90
6664;DHT22;58749;48.022;10.922;2022-09-02T09:16:33;17.20;99.90
6664;DHT22;58749;48.022;10.922;2022-09-02T09:19:07;17.20;99.90
6664;DHT22;58749;48.022;10.922;2022-09-02T09:21:37;17.40;99.90
6664;DHT22;58749;48.022;10.922;2022-09-02T09:24:12;17.60;99.90
6664;DHT22;58749;48.022;10.922;2022-09-02T09:26:43;17.70;99.90
6664;DHT22;58749;48.022;10.922;2022-09-02T09:29:13;17.80;99.90
6664;DHT22;58749;48.022;10.922;2022-09-02T09:31:43;17.80;99.90
6664;DHT22;58749;48.022;10.922;2022-09-02T09:34:13;17.90;99.90
6664;DHT22;58749;48.022;10.922;2022-09-02T09:36:50;18.00;99.90
6664;DHT22;58749;48.022;10.922;2022-09-02T09:39:22;18.00;99.90
6664;DHT22;58749;48.022;10.922;2022-09-02T09:41:52;18.00;99.90
6664;DHT22;58749;48.022;10.922;2022-09-02T09:44:41;18.00;99.90
6664;DHT22;58749;48.022;10.922;2022-09-02T09:47:17;18.10;99.90
6664;DHT22;58749;48.022;10.922;2022-09-02T09:49:48;18.20;99.90
6664;DHT22;58749;48.022;10.922;2022-09-02T09:52:24;18.40;99.90
6664;DHT22;58749;48.022;10.922;2022-09-02T09:55:14;18.50;99.90
6664;DHT22;58749;48.022;10.922;2022-09-02T09:57:50;18.50;99.90
6664;DHT22;58749;48.022;10.922;2022-09-02T10:00:24;18.50;99.90
6664;DHT22;58749;48.022;10.922;2022-09-02T10:02:58;18.70;99.90
6664;DHT22;58749;48.022;10.922;2022-09-02T10:05:30;18.70;99.90
6664;DHT22;58749;48.022;10.922;2022-09-02T10:08:00;18.70;99.90
6664;DHT22;58749;48.022;10.922;2022-09-02T10:10:35;18.70;99.90
6664;DHT22;58749;48.022;10.922;2022-09-02T10:13:18;18.80;99.90
6664;DHT22;58749;48.022;10.922;2022-09-02T10:15:59;18.80;99.90
6664;DHT22;58749;48.022;10.922;2022-09-02T10:18:33;18.90;99.90
6664;DHT22;58749;48.022;10.922;2022-09-02T10:21:06;18.90;99.90
6664;DHT22;58749;48.022;10.922;2022-09-02T10:23:46;18.80;99.90
6664;DHT22;58749;48.022;10.922;2022-09-02T10:26:24;19.00;99.90
6664;DHT22;58749;48.022;10.922;2022-09-02T10:29:08;19.20;99.90
6664;DHT22;58749;48.022;10.922;2022-09-02T10:31:47;19.30;99.90
6664;DHT22;58749;48.022;10.922;2022-09-02T10:34:25;19.30;99.90
6664;DHT22;58749;48.022;10.922;2022-09-02T10:37:09;19.20;99.50
6664;DHT22;58749;48.022;10.922;2022-09-02T10:40:01;19.30;99.90
6664;DHT22;58749;48.022;10.922;2022-09-02T10:42:38;19.30;99.90
6664;DHT22;58749;48.022;10.922;2022-09-02T10:45:13;19.40;99.90
6664;DHT22;58749;48.022;10.922;2022-09-02T10:47:48;19.60;99.90
6664;DHT22;58749;48.022;10.922;2022-09-02T10:50:22;19.70;99.90
6664;DHT22;58749;48.022;10.922;2022-09-02T10:53:03;19.80;99.90
6664;DHT22;58749;48.022;10.922;2022-09-02T10:55:42;20.00;99.70
6664;DHT22;58749;48.022;10.922;2022-09-02T10:58:16;20.00;98.70
6664;DHT22;58749;48.022;10.922;2022-09-02T11:00:50;20.00;98.10
6664;DHT22;58749;48.022;10.922;2022-09-02T11:03:24;20.20;98.40
6664;DHT22;58749;48.022;10.922;2022-09-02T11:05:59;20.10;98.30
6664;DHT22;58749;48.022;10.922;2022-09-02T11:08:35;20.10;97.30
6664;DHT22;58749;48.022;10.922;2022-09-02T11:11:10;20.10;96.60
6664;DHT22;58749;48.022;10.922;2022-09-02T11:13:48;20.00;96.90
6664;DHT22;58749;48.022;10.922;2022-09-02T11:16:21;20.00;97.70
6664;DHT22;58749;48.022;10.922;2022-09-02T11:18:55;20.00;97.30
6664;DHT22;58749;48.022;10.922;2022-09-02T11:21:35;20.10;97.50
6664;DHT22;58749;48.022;10.922;2022-09-02T11:24:09;20.10;96.50
6664;DHT22;58749;48.022;10.922;2022-09-02T11:26:50;20.20;96.40
6664;DHT22;58749;48.022;10.922;2022-09-02T11:29:24;20.20;96.00
6664;DHT22;58749;48.022;10.922;2022-09-02T11:32:00;20.30;97.70
6664;DHT22;58749;48.022;10.922;2022-09-02T11:34:35;20.50;96.50
6664;DHT22;58749;48.022;10.922;2022-09-02T11:37:07;20.50;96.30
6664;DHT22;58749;48.022;10.922;2022-09-02T11:39:40;20.60;96.30
6664;DHT22;58749;48.022;10.922;2022-09-02T11:42:46;20.70;95.00
6664;DHT22;58749;48.022;10.922;2022-09-02T11:45:38;20.60;94.50
6664;DHT22;58749;48.022;10.922;2022-09-02T11:51:35;20.70;96.00
6664;DHT22;58749;48.022;10.922;2022-09-02T11:54:12;20.90;94.60
6664;DHT22;58749;48.022;10.922;2022-09-02T11:56:44;20.90;93.40
6664;DHT22;58749;48.022;10.922;2022-09-02T11:59:21;20.90;94.20
6664;DHT22;58749;48.022;10.922;2022-09-02T12:01:51;20.90;92.90
6664;DHT22;58749;48.022;10.922;2022-09-02T12:04:22;20.90;93.80
6664;DHT22;58749;48.022;10.922;2022-09-02T12:07:23;21.00;94.20
6664;DHT22;58749;48.022;10.922;2022-09-02T12:10:00;21.10;94.50
6664;DHT22;58749;48.022;10.922;2022-09-02T12:13:03;21.20;93.00
6664;DHT22;58749;48.022;10.922;2022-09-02T12:15:35;21.10;93.70
6664;DHT22;58749;48.022;10.922;2022-09-02T12:18:13;21.10;93.50
6664;DHT22;58749;48.022;10.922;2022-09-02T12:21:05;21.10;94.00
6664;DHT22;58749;48.022;10.922;2022-09-02T12:24:19;21.20;93.20
6664;DHT22;58749;48.022;10.922;2022-09-02T12:27:23;21.20;93.30
6664;DHT22;58749;48.022;10.922;2022-09-02T12:29:52;21.20;92.70
6664;DHT22;58749;48.022;10.922;2022-09-02T12:35:50;21.30;93.30
6664;DHT22;58749;48.022;10.922;2022-09-02T12:38:34;21.40;92.20
6664;DHT22;58749;48.022;10.922;2022-09-02T12:44:21;21.40;90.30
6664;DHT22;58749;48.022;10.922;2022-09-02T12:46:58;21.40;91.70
6664;DHT22;58749;48.022;10.922;2022-09-02T12:49:37;21.40;91.90
6664;DHT22;58749;48.022;10.922;2022-09-02T12:52:08;21.40;91.70
6664;DHT22;58749;48.022;10.922;2022-09-02T12:54:43;21.40;91.70
6664;DHT22;58749;48.022;10.922;2022-09-02T12:57:14;21.50;91.50
6664;DHT22;58749;48.022;10.922;2022-09-02T12:59:45;21.50;91.80
6664;DHT22;58749;48.022;10.922;2022-09-02T13:02:29;21.60;92.80
6664;DHT22;58749;48.022;10.922;2022-09-02T13:05:17;21.70;91.70
6664;DHT22;58749;48.022;10.922;2022-09-02T13:08:21;21.70;90.70
6664;DHT22;58749;48.022;10.922;2022-09-02T13:11:32;21.70;90.80
6664;DHT22;58749;48.022;10.922;2022-09-02T13:14:34;21.70;91.10
6664;DHT22;58749;48.022;10.922;2022-09-02T13:17:21;21.70;91.00
6664;DHT22;58749;48.022;10.922;2022-09-02T13:20:48;21.70;91.30
6664;DHT22;58749;48.022;10.922;2022-09-02T13:29:48;21.70;91.30
6664;DHT22;58749;48.022;10.922;2022-09-02T13:32:27;21.70;90.50
6664;DHT22;58749;48.022;10.922;2022-09-02T13:34:58;21.70;90.30
6664;DHT22;58749;48.022;10.922;2022-09-02T13:37:28;21.70;90.50
6664;DHT22;58749;48.022;10.922;2022-09-02T13:39:58;21.70;91.00
6664;DHT22;58749;48.022;10.922;2022-09-02T13:42:28;21.80;90.20
6664;DHT22;58749;48.022;10.922;2022-09-02T13:45:12;21.80;89.30
6664;DHT22;58749;48.022;10.922;2022-09-02T13:47:43;21.80;90.70
6664;DHT22;58749;48.022;10.922;2022-09-02T13:50:14;21.90;90.60
6664;DHT22;58749;48.022;10.922;2022-09-02T13:52:46;21.90;90.00
6664;DHT22;58749;48.022;10.922;2022-09-02T13:55:35;21.90;88.60
6664;DHT22;58749;48.022;10.922;2022-09-02T13:58:21;21.90;88.40
6664;DHT22;58749;48.022;10.922;2022-09-02T14:00:51;21.90;87.50
6664;DHT22;58749;48.022;10.922;2022-09-02T14:03:25;21.80;88.80
6664;DHT22;58749;48.022;10.922;2022-09-02T14:05:55;21.80;88.80
6664;DHT22;58749;48.022;10.922;2022-09-02T14:08:25;21.80;87.80
6664;DHT22;58749;48.022;10.922;2022-09-02T14:10:55;21.80;88.60
6664;DHT22;58749;48.022;10.922;2022-09-02T14:13:24;21.70;85.50
6664;DHT22;58749;48.022;10.922;2022-09-02T14:15:53;21.60;85.10
6664;DHT22;58749;48.022;10.922;2022-09-02T14:18:22;21.60;84.60
6664;DHT22;58749;48.022;10.922;2022-09-02T14:20:57;21.60;86.60
6664;DHT22;58749;48.022;10.922;2022-09-02T14:23:27;21.60;86.40
6664;DHT22;58749;48.022;10.922;2022-09-02T14:25:57;21.60;84.00
6664;DHT22;58749;48.022;10.922;2022-09-02T14:28:27;21.60;86.50
6664;DHT22;58749;48.022;10.922;2022-09-02T14:30:59;21.70;87.50
6664;DHT22;58749;48.022;10.922;2022-09-02T14:33:38;21.60;85.20
6664;DHT22;58749;48.022;10.922;2022-09-02T14:36:12;21.60;85.20
6664;DHT22;58749;48.022;10.922;2022-09-02T14:39:07;21.60;84.50
6664;DHT22;58749;48.022;10.922;2022-09-02T14:41:42;21.60;84.80
6664;DHT22;58749;48.022;10.922;2022-09-02T14:44:15;21.60;86.60
6664;DHT22;58749;48.022;10.922;2022-09-02T14:46:46;21.70;84.60
6664;DHT22;58749;48.022;10.922;2022-09-02T14:49:21;21.70;82.10
6664;DHT22;58749;48.022;10.922;2022-09-02T14:51:54;21.60;83.10
6664;DHT22;58749;48.022;10.922;2022-09-02T14:54:34;21.70;85.60
6664;DHT22;58749;48.022;10.922;2022-09-02T14:57:03;21.70;86.10
6664;DHT22;58749;48.022;10.922;2022-09-02T14:59:31;21.70;84.00
6664;DHT22;58749;48.022;10.922;2022-09-02T15:01:59;21.60;82.20
6664;DHT22;58749;48.022;10.922;2022-09-02T15:04:27;21.60;83.60
6664;DHT22;58749;48.022;10.922;2022-09-02T15:07:00;21.60;84.10
6664;DHT22;58749;48.022;10.922;2022-09-02T15:09:28;21.60;83.70
6664;DHT22;58749;48.022;10.922;2022-09-02T15:11:56;21.60;83.10
6664;DHT22;58749;48.022;10.922;2022-09-02T15:14:28;21.50;81.90
6664;DHT22;58749;48.022;10.922;2022-09-02T15:16:57;21.50;83.10
6664;DHT22;58749;48.022;10.922;2022-09-02T15:19:25;21.50;84.50
6664;DHT22;58749;48.022;10.922;2022-09-02T15:21:53;21.50;84.60
6664;DHT22;58749;48.022;10.922;2022-09-02T15:24:23;21.50;84.20
6664;DHT22;58749;48.022;10.922;2022-09-02T15:26:51;21.50;83.70
6664;DHT22;58749;48.022;10.922;2022-09-02T15:29:19;21.60;83.90
6664;DHT22;58749;48.022;10.922;2022-09-02T15:31:54;21.60;84.40
6664;DHT22;58749;48.022;10.922;2022-09-02T15:34:25;21.50;85.10
6664;DHT22;58749;48.022;10.922;2022-09-02T15:36:53;21.50;83.90
6664;DHT22;58749;48.022;10.922;2022-09-02T15:39:24;21.50;82.40
6664;DHT22;58749;48.022;10.922;2022-09-02T15:41:53;21.40;82.70
6664;DHT22;58749;48.022;10.922;2022-09-02T15:44:21;21.40;84.40
6664;DHT22;58749;48.022;10.922;2022-09-02T15:46:51;21.40;84.00
6664;DHT22;58749;48.022;10.922;2022-09-02T15:49:21;21.40;83.60
6664;DHT22;58749;48.022;10.922;2022-09-02T15:51:50;21.30;84.10
6664;DHT22;58749;48.022;10.922;2022-09-02T15:54:22;21.30;84.20
6664;DHT22;58749;48.022;10.922;2022-09-02T15:56:55;21.20;83.00
6664;DHT22;58749;48.022;10.922;2022-09-02T15:59:25;21.20;85.30
6664;DHT22;58749;48.022;10.922;2022-09-02T16:01:55;21.10;82.30
6664;DHT22;58749;48.022;10.922;2022-09-02T16:04:24;21.10;83.00
6664;DHT22;58749;48.022;10.922;2022-09-02T16:06:54;21.10;84.10
6664;DHT22;58749;48.022;10.922;2022-09-02T16:09:22;21.10;83.30
6664;DHT22;58749;48.022;10.922;2022-09-02T16:11:52;21.00;82.40
6664;DHT22;58749;48.022;10.922;2022-09-02T16:14:23;21.00;84.00
6664;DHT22;58749;48.022;10.922;2022-09-02T16:16:53;21.00;83.60
6664;DHT22;58749;48.022;10.922;2022-09-02T16:19:25;20.90;83.50